sensor_id;sensor_type;location;lat;lon;timestamp;P1;durP1;ratioP1;P2;durP2;ratioP2
57778;SDS011;43608;49.486;9.640;2023-04-23T00:00:03;2.03;;;1.70;;
57778;SDS011;43608;49.486;9.640;2023-04-23T00:00:37;2.20;;;1.60;;
57778;SDS011;43608;49.486;9.640;2023-04-23T00:01:09;1.83;;;1.70;;
57778;SDS011;43608;49.486;9.640;2023-04-23T00:01:40;1.80;;;1.70;;
57778;SDS011;43608;49.486;9.640;2023-04-23T00:02:10;1.75;;;1.63;;
57778;SDS011;43608;49.486;9.640;2023-04-23T00:02:43;1.92;;;1.70;;
57778;SDS011;43608;49.486;9.640;2023-04-23T00:03:14;1.83;;;1.67;;
57778;SDS011;43608;49.486;9.640;2023-04-23T00:03:48;1.90;;;1.67;;
57778;SDS011;43608;49.486;9.640;2023-04-23T00:04:19;1.95;;;1.80;;
57778;SDS011;43608;49.486;9.640;2023-04-23T00:04:51;2.20;;;1.80;;
57778;SDS011;43608;49.486;9.640;2023-04-23T00:05:24;1.98;;;1.80;;
57778;SDS011;43608;49.486;9.640;2023-04-23T00:05:57;1.90;;;1.80;;
57778;SDS011;43608;49.486;9.640;2023-04-23T00:06:28;2.38;;;1.77;;
57778;SDS011;43608;49.486;9.640;2023-04-23T00:06:59;1.90;;;1.70;;
57778;SDS011;43608;49.486;9.640;2023-04-23T00:07:32;2.10;;;1.90;;
57778;SDS011;43608;49.486;9.640;2023-04-23T00:08:03;2.05;;;1.85;;
57778;SDS011;43608;49.486;9.640;2023-04-23T00:08:34;1.92;;;1.70;;
57778;SDS011;43608;49.486;9.640;2023-04-23T00:09:10;1.92;;;1.70;;
57778;SDS011;43608;49.486;9.640;2023-04-23T00:09:43;1.88;;;1.70;;
57778;SDS011;43608;49.486;9.640;2023-04-23T00:10:15;2.13;;;1.92;;
57778;SDS011;43608;49.486;9.640;2023-04-23T00:10:45;2.30;;;1.90;;
57778;SDS011;43608;49.486;9.640;2023-04-23T00:11:16;1.98;;;1.80;;
57778;SDS011;43608;49.486;9.640;2023-04-23T00:11:47;2.35;;;1.80;;
57778;SDS011;43608;49.486;9.640;2023-04-23T00:12:17;2.40;;;1.77;;
57778;SDS011;43608;49.486;9.640;2023-04-23T00:12:48;2.50;;;2.00;;
57778;SDS011;43608;49.486;9.640;2023-04-23T00:13:19;2.25;;;1.88;;
57778;SDS011;43608;49.486;9.640;2023-04-23T00:13:49;2.30;;;1.73;;
57778;SDS011;43608;49.486;9.640;2023-04-23T00:14:20;2.33;;;1.90;;
57778;SDS011;43608;49.486;9.640;2023-04-23T00:14:50;2.80;;;1.92;;
57778;SDS011;43608;49.486;9.640;2023-04-23T00:15:21;2.15;;;1.88;;
57778;SDS011;43608;49.486;9.640;2023-04-23T00:15:51;2.08;;;1.85;;
57778;SDS011;43608;49.486;9.640;2023-04-23T00:16:22;2.65;;;2.00;;
57778;SDS011;43608;49.486;9.640;2023-04-23T00:16:53;2.33;;;1.83;;
57778;SDS011;43608;49.486;9.640;2023-04-23T00:17:24;2.10;;;1.90;;
57778;SDS011;43608;49.486;9.640;2023-04-23T00:17:54;2.85;;;2.00;;
57778;SDS011;43608;49.486;9.640;2023-04-23T00:18:25;2.50;;;2.00;;
57778;SDS011;43608;49.486;9.640;2023-04-23T00:18:55;2.53;;;2.00;;
57778;SDS011;43608;49.486;9.640;2023-04-23T00:19:25;2.75;;;2.10;;
57778;SDS011;43608;49.486;9.640;2023-04-23T00:19:56;2.28;;;1.88;;
57778;SDS011;43608;49.486;9.640;2023-04-23T00:20:26;2.10;;;1.90;;
57778;SDS011;43608;49.486;9.640;2023-04-23T00:20:57;2.50;;;1.92;;
57778;SDS011;43608;49.486;9.640;2023-04-23T00:21:27;2.53;;;1.90;;
57778;SDS011;43608;49.486;9.640;2023-04-23T00:21:58;3.10;;;1.95;;
57778;SDS011;43608;49.486;9.640;2023-04-23T00:22:28;2.47;;;2.10;;
57778;SDS011;43608;49.486;9.640;2023-04-23T00:22:58;2.67;;;2.10;;
57778;SDS011;43608;49.486;9.640;2023-04-23T00:23:29;2.53;;;2.10;;
57778;SDS011;43608;49.486;9.640;2023-04-23T00:24:00;2.40;;;2.10;;
57778;SDS011;43608;49.486;9.640;2023-04-23T00:24:30;2.40;;;2.00;;
57778;SDS011;43608;49.486;9.640;2023-04-23T00:25:03;2.38;;;2.15;;
57778;SDS011;43608;49.486;9.640;2023-04-23T00:25:33;3.00;;;2.10;;
57778;SDS011;43608;49.486;9.640;2023-04-23T00:26:04;3.30;;;2.20;;
57778;SDS011;43608;49.486;9.640;2023-04-23T00:26:35;3.05;;;2.10;;
57778;SDS011;43608;49.486;9.640;2023-04-23T00:27:05;2.03;;;1.85;;
57778;SDS011;43608;49.486;9.640;2023-04-23T00:27:35;2.63;;;2.13;;
57778;SDS011;43608;49.486;9.640;2023-04-23T00:28:06;3.30;;;2.10;;
57778;SDS011;43608;49.486;9.640;2023-04-23T00:28:36;2.47;;;2.00;;
57778;SDS011;43608;49.486;9.640;2023-04-23T00:29:07;2.38;;;2.00;;
57778;SDS011;43608;49.486;9.640;2023-04-23T00:29:37;2.30;;;1.90;;
57778;SDS011;43608;49.486;9.640;2023-04-23T00:30:08;2.78;;;2.00;;
57778;SDS011;43608;49.486;9.640;2023-04-23T00:30:39;2.30;;;1.90;;
57778;SDS011;43608;49.486;9.640;2023-04-23T00:31:09;2.10;;;1.90;;
57778;SDS011;43608;49.486;9.640;2023-04-23T00:31:39;2.33;;;1.98;;
57778;SDS011;43608;49.486;9.640;2023-04-23T00:32:10;2.17;;;1.98;;
57778;SDS011;43608;49.486;9.640;2023-04-23T00:32:40;2.10;;;1.90;;
57778;SDS011;43608;49.486;9.640;2023-04-23T00:33:11;2.40;;;2.00;;
57778;SDS011;43608;49.486;9.640;2023-04-23T00:33:41;1.92;;;1.80;;
57778;SDS011;43608;49.486;9.640;2023-04-23T00:34:12;2.17;;;1.98;;
57778;SDS011;43608;49.486;9.640;2023-04-23T00:34:42;2.25;;;2.00;;
57778;SDS011;43608;49.486;9.640;2023-04-23T00:35:13;2.17;;;1.98;;
57778;SDS011;43608;49.486;9.640;2023-04-23T00:35:43;1.95;;;1.83;;
57778;SDS011;43608;49.486;9.640;2023-04-23T00:36:14;1.92;;;1.80;;
57778;SDS011;43608;49.486;9.640;2023-04-23T00:36:44;2.47;;;2.08;;
57778;SDS011;43608;49.486;9.640;2023-04-23T00:37:14;2.63;;;2.00;;
57778;SDS011;43608;49.486;9.640;2023-04-23T00:37:45;2.13;;;1.92;;
57778;SDS011;43608;49.486;9.640;2023-04-23T00:38:15;2.10;;;1.90;;
57778;SDS011;43608;49.486;9.640;2023-04-23T00:38:46;2.20;;;1.92;;
57778;SDS011;43608;49.486;9.640;2023-04-23T00:39:17;2.10;;;1.90;;
57778;SDS011;43608;49.486;9.640;2023-04-23T00:39:47;2.72;;;2.05;;
57778;SDS011;43608;49.486;9.640;2023-04-23T00:40:17;2.00;;;1.80;;
57778;SDS011;43608;49.486;9.640;2023-04-23T00:40:49;2.65;;;2.08;;
57778;SDS011;43608;49.486;9.640;2023-04-23T00:41:19;2.10;;;1.90;;
57778;SDS011;43608;49.486;9.640;2023-04-23T00:41:50;2.20;;;2.00;;
57778;SDS011;43608;49.486;9.640;2023-04-23T00:42:20;1.90;;;1.70;;
57778;SDS011;43608;49.486;9.640;2023-04-23T00:42:51;2.30;;;1.90;;
57778;SDS011;43608;49.486;9.640;2023-04-23T00:43:22;2.20;;;1.75;;
57778;SDS011;43608;49.486;9.640;2023-04-23T00:43:53;2.17;;;1.90;;
57778;SDS011;43608;49.486;9.640;2023-04-23T00:44:26;2.33;;;1.90;;
57778;SDS011;43608;49.486;9.640;2023-04-23T00:44:56;1.80;;;1.70;;
57778;SDS011;43608;49.486;9.640;2023-04-23T00:45:27;2.00;;;1.80;;
57778;SDS011;43608;49.486;9.640;2023-04-23T00:45:58;2.00;;;1.73;;
57778;SDS011;43608;49.486;9.640;2023-04-23T00:46:29;2.00;;;1.80;;
57778;SDS011;43608;49.486;9.640;2023-04-23T00:46:59;2.25;;;1.98;;
57778;SDS011;43608;49.486;9.640;2023-04-23T00:47:30;2.00;;;1.85;;
57778;SDS011;43608;49.486;9.640;2023-04-23T00:48:01;1.80;;;1.70;;
57778;SDS011;43608;49.486;9.640;2023-04-23T00:48:33;1.98;;;1.88;;
57778;SDS011;43608;49.486;9.640;2023-04-23T00:49:04;2.15;;;1.83;;
57778;SDS011;43608;49.486;9.640;2023-04-23T00:49:35;1.90;;;1.80;;
57778;SDS011;43608;49.486;9.640;2023-04-23T00:50:06;2.00;;;1.80;;
57778;SDS011;43608;49.486;9.640;2023-04-23T00:50:37;1.90;;;1.70;;
57778;SDS011;43608;49.486;9.640;2023-04-23T00:51:09;1.80;;;1.70;;
57778;SDS011;43608;49.486;9.640;2023-04-23T00:51:40;2.20;;;1.80;;
57778;SDS011;43608;49.486;9.640;2023-04-23T00:52:10;1.90;;;1.70;;
57778;SDS011;43608;49.486;9.640;2023-04-23T00:52:41;1.90;;;1.80;;
57778;SDS011;43608;49.486;9.640;2023-04-23T00:53:11;2.20;;;1.80;;
57778;SDS011;43608;49.486;9.640;2023-04-23T00:53:42;2.28;;;1.80;;
57778;SDS011;43608;49.486;9.640;2023-04-23T00:54:12;2.10;;;1.90;;
57778;SDS011;43608;49.486;9.640;2023-04-23T00:54:43;1.92;;;1.70;;
57778;SDS011;43608;49.486;9.640;2023-04-23T00:55:13;1.80;;;1.70;;
57778;SDS011;43608;49.486;9.640;2023-04-23T00:55:44;2.10;;;1.90;;
57778;SDS011;43608;49.486;9.640;2023-04-23T00:56:15;2.00;;;1.90;;
57778;SDS011;43608;49.486;9.640;2023-04-23T00:56:47;1.98;;;1.77;;
57778;SDS011;43608;49.486;9.640;2023-04-23T00:57:18;2.00;;;1.80;;
57778;SDS011;43608;49.486;9.640;2023-04-23T00:57:48;1.80;;;1.70;;
57778;SDS011;43608;49.486;9.640;2023-04-23T00:58:19;2.22;;;1.80;;
57778;SDS011;43608;49.486;9.640;2023-04-23T00:58:50;1.98;;;1.70;;
57778;SDS011;43608;49.486;9.640;2023-04-23T00:59:21;2.00;;;1.80;;
57778;SDS011;43608;49.486;9.640;2023-04-23T00:59:52;1.80;;;1.70;;
57778;SDS011;43608;49.486;9.640;2023-04-23T01:00:24;3.28;;;1.73;;
57778;SDS011;43608;49.486;9.640;2023-04-23T01:00:55;2.20;;;2.00;;
57778;SDS011;43608;49.486;9.640;2023-04-23T01:01:25;2.10;;;1.80;;
57778;SDS011;43608;49.486;9.640;2023-04-23T01:01:56;1.88;;;1.70;;
57778;SDS011;43608;49.486;9.640;2023-04-23T01:02:27;1.92;;;1.80;;
57778;SDS011;43608;49.486;9.640;2023-04-23T01:03:00;1.88;;;1.70;;
57778;SDS011;43608;49.486;9.640;2023-04-23T01:03:30;1.95;;;1.80;;
57778;SDS011;43608;49.486;9.640;2023-04-23T01:04:05;1.90;;;1.80;;
57778;SDS011;43608;49.486;9.640;2023-04-23T01:04:38;1.90;;;1.80;;
57778;SDS011;43608;49.486;9.640;2023-04-23T01:05:10;2.00;;;1.80;;
57778;SDS011;43608;49.486;9.640;2023-04-23T01:05:44;1.80;;;1.70;;
57778;SDS011;43608;49.486;9.640;2023-04-23T01:06:15;1.80;;;1.70;;
57778;SDS011;43608;49.486;9.640;2023-04-23T01:06:45;2.00;;;1.80;;
57778;SDS011;43608;49.486;9.640;2023-04-23T01:07:16;2.78;;;2.00;;
57778;SDS011;43608;49.486;9.640;2023-04-23T01:07:47;2.05;;;1.80;;
57778;SDS011;43608;49.486;9.640;2023-04-23T01:08:18;1.90;;;1.80;;
57778;SDS011;43608;49.486;9.640;2023-04-23T01:08:50;2.20;;;2.00;;
57778;SDS011;43608;49.486;9.640;2023-04-23T01:09:21;1.92;;;1.80;;
57778;SDS011;43608;49.486;9.640;2023-04-23T01:09:52;1.85;;;1.75;;
57778;SDS011;43608;49.486;9.640;2023-04-23T01:10:23;2.10;;;1.80;;
57778;SDS011;43608;49.486;9.640;2023-04-23T01:10:53;2.42;;;1.88;;
57778;SDS011;43608;49.486;9.640;2023-04-23T01:11:24;2.17;;;1.90;;
57778;SDS011;43608;49.486;9.640;2023-04-23T01:11:54;1.88;;;1.75;;
57778;SDS011;43608;49.486;9.640;2023-04-23T01:12:26;2.00;;;1.80;;
57778;SDS011;43608;49.486;9.640;2023-04-23T01:12:57;2.40;;;1.92;;
57778;SDS011;43608;49.486;9.640;2023-04-23T01:13:28;2.17;;;1.98;;
57778;SDS011;43608;49.486;9.640;2023-04-23T01:13:59;1.88;;;1.67;;
57778;SDS011;43608;49.486;9.640;2023-04-23T01:14:29;2.10;;;1.90;;
57778;SDS011;43608;49.486;9.640;2023-04-23T01:15:01;2.30;;;1.90;;
57778;SDS011;43608;49.486;9.640;2023-04-23T01:15:32;2.15;;;1.90;;
57778;SDS011;43608;49.486;9.640;2023-04-23T01:16:02;1.80;;;1.70;;
57778;SDS011;43608;49.486;9.640;2023-04-23T01:16:33;2.20;;;2.00;;
57778;SDS011;43608;49.486;9.640;2023-04-23T01:17:04;2.10;;;1.90;;
57778;SDS011;43608;49.486;9.640;2023-04-23T01:17:34;2.17;;;1.98;;
57778;SDS011;43608;49.486;9.640;2023-04-23T01:18:06;2.22;;;1.90;;
57778;SDS011;43608;49.486;9.640;2023-04-23T01:18:36;2.17;;;1.98;;
57778;SDS011;43608;49.486;9.640;2023-04-23T01:19:10;2.08;;;1.88;;
57778;SDS011;43608;49.486;9.640;2023-04-23T01:19:40;2.00;;;1.85;;
57778;SDS011;43608;49.486;9.640;2023-04-23T01:20:11;2.15;;;1.95;;
57778;SDS011;43608;49.486;9.640;2023-04-23T01:20:41;2.05;;;1.90;;
57778;SDS011;43608;49.486;9.640;2023-04-23T01:21:12;2.05;;;1.80;;
57778;SDS011;43608;49.486;9.640;2023-04-23T01:21:44;2.92;;;2.00;;
57778;SDS011;43608;49.486;9.640;2023-04-23T01:22:15;2.35;;;1.90;;
57778;SDS011;43608;49.486;9.640;2023-04-23T01:22:46;2.88;;;2.00;;
57778;SDS011;43608;49.486;9.640;2023-04-23T01:23:16;2.47;;;2.03;;
57778;SDS011;43608;49.486;9.640;2023-04-23T01:23:46;2.53;;;2.10;;
57778;SDS011;43608;49.486;9.640;2023-04-23T01:24:17;2.35;;;2.05;;
57778;SDS011;43608;49.486;9.640;2023-04-23T01:24:47;2.97;;;2.03;;
57778;SDS011;43608;49.486;9.640;2023-04-23T01:25:18;2.33;;;1.90;;
57778;SDS011;43608;49.486;9.640;2023-04-23T01:25:48;2.38;;;2.00;;
57778;SDS011;43608;49.486;9.640;2023-04-23T01:26:20;1.98;;;1.88;;
57778;SDS011;43608;49.486;9.640;2023-04-23T01:26:52;1.85;;;1.70;;
57778;SDS011;43608;49.486;9.640;2023-04-23T01:27:22;2.17;;;1.98;;
57778;SDS011;43608;49.486;9.640;2023-04-23T01:27:54;2.10;;;1.90;;
57778;SDS011;43608;49.486;9.640;2023-04-23T01:28:26;2.20;;;1.98;;
57778;SDS011;43608;49.486;9.640;2023-04-23T01:28:56;2.83;;;2.10;;
57778;SDS011;43608;49.486;9.640;2023-04-23T01:29:28;2.20;;;2.00;;
57778;SDS011;43608;49.486;9.640;2023-04-23T01:30:01;3.08;;;2.13;;
57778;SDS011;43608;49.486;9.640;2023-04-23T01:30:34;2.78;;;2.13;;
57778;SDS011;43608;49.486;9.640;2023-04-23T01:31:04;3.03;;;2.20;;
57778;SDS011;43608;49.486;9.640;2023-04-23T01:31:35;2.78;;;2.13;;
57778;SDS011;43608;49.486;9.640;2023-04-23T01:32:06;2.90;;;2.40;;
57778;SDS011;43608;49.486;9.640;2023-04-23T01:32:37;3.67;;;2.60;;
57778;SDS011;43608;49.486;9.640;2023-04-23T01:33:08;5.97;;;2.83;;
57778;SDS011;43608;49.486;9.640;2023-04-23T01:33:40;4.13;;;2.63;;
57778;SDS011;43608;49.486;9.640;2023-04-23T01:34:10;4.65;;;3.15;;
57778;SDS011;43608;49.486;9.640;2023-04-23T01:34:43;4.13;;;3.20;;
57778;SDS011;43608;49.486;9.640;2023-04-23T01:35:15;4.40;;;3.10;;
57778;SDS011;43608;49.486;9.640;2023-04-23T01:35:45;5.13;;;3.28;;
57778;SDS011;43608;49.486;9.640;2023-04-23T01:36:18;4.00;;;2.90;;
57778;SDS011;43608;49.486;9.640;2023-04-23T01:36:49;3.88;;;2.90;;
57778;SDS011;43608;49.486;9.640;2023-04-23T01:37:21;3.20;;;2.78;;
57778;SDS011;43608;49.486;9.640;2023-04-23T01:37:52;3.95;;;2.97;;
57778;SDS011;43608;49.486;9.640;2023-04-23T01:38:24;3.97;;;2.97;;
57778;SDS011;43608;49.486;9.640;2023-04-23T01:38:57;4.07;;;2.75;;
57778;SDS011;43608;49.486;9.640;2023-04-23T01:39:28;3.60;;;2.95;;
57778;SDS011;43608;49.486;9.640;2023-04-23T01:39:58;4.35;;;2.67;;
57778;SDS011;43608;49.486;9.640;2023-04-23T01:40:28;3.40;;;2.60;;
57778;SDS011;43608;49.486;9.640;2023-04-23T01:40:59;2.85;;;2.40;;
57778;SDS011;43608;49.486;9.640;2023-04-23T01:41:29;3.63;;;2.80;;
57778;SDS011;43608;49.486;9.640;2023-04-23T01:42:00;3.20;;;2.65;;
57778;SDS011;43608;49.486;9.640;2023-04-23T01:42:31;4.32;;;3.10;;
57778;SDS011;43608;49.486;9.640;2023-04-23T01:43:02;3.40;;;2.90;;
57778;SDS011;43608;49.486;9.640;2023-04-23T01:43:35;4.25;;;3.13;;
57778;SDS011;43608;49.486;9.640;2023-04-23T01:44:06;3.65;;;2.80;;
57778;SDS011;43608;49.486;9.640;2023-04-23T01:44:37;3.83;;;2.90;;
57778;SDS011;43608;49.486;9.640;2023-04-23T01:45:07;4.40;;;3.20;;
57778;SDS011;43608;49.486;9.640;2023-04-23T01:45:38;3.47;;;2.88;;
57778;SDS011;43608;49.486;9.640;2023-04-23T01:46:10;5.00;;;3.13;;
57778;SDS011;43608;49.486;9.640;2023-04-23T01:46:41;5.00;;;3.20;;
57778;SDS011;43608;49.486;9.640;2023-04-23T01:47:11;4.63;;;3.42;;
57778;SDS011;43608;49.486;9.640;2023-04-23T01:47:41;5.38;;;3.30;;
57778;SDS011;43608;49.486;9.640;2023-04-23T01:48:12;4.47;;;3.00;;
57778;SDS011;43608;49.486;9.640;2023-04-23T01:48:42;3.88;;;3.10;;
57778;SDS011;43608;49.486;9.640;2023-04-23T01:49:13;4.97;;;3.50;;
57778;SDS011;43608;49.486;9.640;2023-04-23T01:49:43;4.10;;;3.20;;
57778;SDS011;43608;49.486;9.640;2023-04-23T01:50:14;3.50;;;2.97;;
57778;SDS011;43608;49.486;9.640;2023-04-23T01:50:44;4.30;;;3.00;;
57778;SDS011;43608;49.486;9.640;2023-04-23T01:51:15;3.95;;;3.00;;
57778;SDS011;43608;49.486;9.640;2023-04-23T01:51:45;4.05;;;2.90;;
57778;SDS011;43608;49.486;9.640;2023-04-23T01:52:16;3.55;;;2.88;;
57778;SDS011;43608;49.486;9.640;2023-04-23T01:52:46;3.75;;;2.95;;
57778;SDS011;43608;49.486;9.640;2023-04-23T01:53:17;4.35;;;3.00;;
57778;SDS011;43608;49.486;9.640;2023-04-23T01:53:47;4.10;;;2.83;;
57778;SDS011;43608;49.486;9.640;2023-04-23T01:54:18;4.35;;;3.08;;
57778;SDS011;43608;49.486;9.640;2023-04-23T01:54:48;3.28;;;2.72;;
57778;SDS011;43608;49.486;9.640;2023-04-23T01:55:19;3.47;;;3.00;;
57778;SDS011;43608;49.486;9.640;2023-04-23T01:55:49;3.70;;;3.03;;
57778;SDS011;43608;49.486;9.640;2023-04-23T01:56:22;3.38;;;2.72;;
57778;SDS011;43608;49.486;9.640;2023-04-23T01:56:54;4.10;;;2.90;;
57778;SDS011;43608;49.486;9.640;2023-04-23T01:57:25;3.38;;;2.83;;
57778;SDS011;43608;49.486;9.640;2023-04-23T01:57:56;3.10;;;2.70;;
57778;SDS011;43608;49.486;9.640;2023-04-23T01:58:26;3.53;;;2.80;;
57778;SDS011;43608;49.486;9.640;2023-04-23T01:58:57;4.28;;;3.00;;
57778;SDS011;43608;49.486;9.640;2023-04-23T01:59:27;3.95;;;2.70;;
57778;SDS011;43608;49.486;9.640;2023-04-23T02:00:00;4.18;;;2.85;;
57778;SDS011;43608;49.486;9.640;2023-04-23T02:00:37;3.58;;;2.72;;
57778;SDS011;43608;49.486;9.640;2023-04-23T02:01:07;4.20;;;2.90;;
57778;SDS011;43608;49.486;9.640;2023-04-23T02:01:41;3.65;;;2.83;;
57778;SDS011;43608;49.486;9.640;2023-04-23T02:02:13;4.00;;;2.63;;
57778;SDS011;43608;49.486;9.640;2023-04-23T02:02:44;3.40;;;2.70;;
57778;SDS011;43608;49.486;9.640;2023-04-23T02:03:14;3.88;;;2.90;;
57778;SDS011;43608;49.486;9.640;2023-04-23T02:03:45;3.35;;;2.85;;
57778;SDS011;43608;49.486;9.640;2023-04-23T02:04:16;3.17;;;2.80;;
57778;SDS011;43608;49.486;9.640;2023-04-23T02:04:47;3.85;;;3.15;;
57778;SDS011;43608;49.486;9.640;2023-04-23T02:05:19;3.95;;;3.10;;
57778;SDS011;43608;49.486;9.640;2023-04-23T02:05:50;4.03;;;2.95;;
57778;SDS011;43608;49.486;9.640;2023-04-23T02:06:23;3.35;;;2.80;;
57778;SDS011;43608;49.486;9.640;2023-04-23T02:06:54;4.07;;;3.15;;
57778;SDS011;43608;49.486;9.640;2023-04-23T02:07:24;3.92;;;2.85;;
57778;SDS011;43608;49.486;9.640;2023-04-23T02:07:55;3.78;;;2.90;;
57778;SDS011;43608;49.486;9.640;2023-04-23T02:08:26;3.75;;;3.17;;
57778;SDS011;43608;49.486;9.640;2023-04-23T02:08:56;3.40;;;3.10;;
57778;SDS011;43608;49.486;9.640;2023-04-23T02:09:27;3.72;;;3.00;;
57778;SDS011;43608;49.486;9.640;2023-04-23T02:09:57;2.92;;;2.63;;
57778;SDS011;43608;49.486;9.640;2023-04-23T02:10:28;3.83;;;2.80;;
57778;SDS011;43608;49.486;9.640;2023-04-23T02:10:59;4.35;;;3.00;;
57778;SDS011;43608;49.486;9.640;2023-04-23T02:11:30;3.75;;;3.00;;
57778;SDS011;43608;49.486;9.640;2023-04-23T02:12:00;3.30;;;2.90;;
57778;SDS011;43608;49.486;9.640;2023-04-23T02:12:30;4.20;;;3.38;;
57778;SDS011;43608;49.486;9.640;2023-04-23T02:13:01;4.28;;;3.10;;
57778;SDS011;43608;49.486;9.640;2023-04-23T02:13:32;4.13;;;3.20;;
57778;SDS011;43608;49.486;9.640;2023-04-23T02:14:03;4.30;;;3.20;;
57778;SDS011;43608;49.486;9.640;2023-04-23T02:14:34;4.38;;;3.20;;
57778;SDS011;43608;49.486;9.640;2023-04-23T02:15:05;3.67;;;3.00;;
57778;SDS011;43608;49.486;9.640;2023-04-23T02:15:36;4.35;;;3.03;;
57778;SDS011;43608;49.486;9.640;2023-04-23T02:16:07;4.47;;;3.30;;
57778;SDS011;43608;49.486;9.640;2023-04-23T02:16:37;4.60;;;3.00;;
57778;SDS011;43608;49.486;9.640;2023-04-23T02:17:08;4.13;;;3.10;;
57778;SDS011;43608;49.486;9.640;2023-04-23T02:17:38;3.72;;;3.00;;
57778;SDS011;43608;49.486;9.640;2023-04-23T02:18:09;3.17;;;2.67;;
57778;SDS011;43608;49.486;9.640;2023-04-23T02:18:39;3.45;;;2.60;;
57778;SDS011;43608;49.486;9.640;2023-04-23T02:19:10;3.67;;;3.00;;
57778;SDS011;43608;49.486;9.640;2023-04-23T02:19:41;3.63;;;2.90;;
57778;SDS011;43608;49.486;9.640;2023-04-23T02:20:11;3.72;;;3.00;;
57778;SDS011;43608;49.486;9.640;2023-04-23T02:20:42;3.45;;;2.92;;
57778;SDS011;43608;49.486;9.640;2023-04-23T02:21:12;4.82;;;3.30;;
57778;SDS011;43608;49.486;9.640;2023-04-23T02:21:43;4.05;;;3.20;;
57778;SDS011;43608;49.486;9.640;2023-04-23T02:22:14;3.83;;;3.30;;
57778;SDS011;43608;49.486;9.640;2023-04-23T02:22:46;3.92;;;3.17;;
57778;SDS011;43608;49.486;9.640;2023-04-23T02:23:17;4.10;;;3.40;;
57778;SDS011;43608;49.486;9.640;2023-04-23T02:23:48;3.58;;;3.00;;
57778;SDS011;43608;49.486;9.640;2023-04-23T02:24:18;4.70;;;3.47;;
57778;SDS011;43608;49.486;9.640;2023-04-23T02:24:48;5.82;;;3.38;;
57778;SDS011;43608;49.486;9.640;2023-04-23T02:25:19;4.72;;;3.60;;
57778;SDS011;43608;49.486;9.640;2023-04-23T02:25:50;4.03;;;3.35;;
57778;SDS011;43608;49.486;9.640;2023-04-23T02:26:21;4.20;;;3.40;;
57778;SDS011;43608;49.486;9.640;2023-04-23T02:26:53;4.43;;;3.38;;
57778;SDS011;43608;49.486;9.640;2023-04-23T02:27:24;3.65;;;3.20;;
57778;SDS011;43608;49.486;9.640;2023-04-23T02:27:54;3.58;;;3.25;;
57778;SDS011;43608;49.486;9.640;2023-04-23T02:28:26;4.45;;;3.53;;
57778;SDS011;43608;49.486;9.640;2023-04-23T02:28:56;4.25;;;3.60;;
57778;SDS011;43608;49.486;9.640;2023-04-23T02:29:27;4.25;;;3.25;;
57778;SDS011;43608;49.486;9.640;2023-04-23T02:29:57;4.03;;;3.20;;
57778;SDS011;43608;49.486;9.640;2023-04-23T02:30:28;3.88;;;3.40;;
57778;SDS011;43608;49.486;9.640;2023-04-23T02:30:58;4.45;;;3.67;;
57778;SDS011;43608;49.486;9.640;2023-04-23T02:31:29;4.38;;;3.45;;
57778;SDS011;43608;49.486;9.640;2023-04-23T02:31:59;4.75;;;3.70;;
57778;SDS011;43608;49.486;9.640;2023-04-23T02:32:29;4.25;;;3.53;;
57778;SDS011;43608;49.486;9.640;2023-04-23T02:33:00;4.45;;;3.60;;
57778;SDS011;43608;49.486;9.640;2023-04-23T02:33:30;5.18;;;3.30;;
57778;SDS011;43608;49.486;9.640;2023-04-23T02:34:01;3.72;;;3.17;;
57778;SDS011;43608;49.486;9.640;2023-04-23T02:34:31;4.40;;;3.40;;
57778;SDS011;43608;49.486;9.640;2023-04-23T02:35:01;4.30;;;3.58;;
57778;SDS011;43608;49.486;9.640;2023-04-23T02:35:32;4.50;;;3.40;;
57778;SDS011;43608;49.486;9.640;2023-04-23T02:36:02;4.47;;;3.50;;
57778;SDS011;43608;49.486;9.640;2023-04-23T02:36:33;3.97;;;3.53;;
57778;SDS011;43608;49.486;9.640;2023-04-23T02:37:03;4.85;;;3.70;;
57778;SDS011;43608;49.486;9.640;2023-04-23T02:37:34;4.50;;;3.75;;
57778;SDS011;43608;49.486;9.640;2023-04-23T02:38:05;4.97;;;3.50;;
57778;SDS011;43608;49.486;9.640;2023-04-23T02:38:36;4.97;;;3.50;;
57778;SDS011;43608;49.486;9.640;2023-04-23T02:39:06;4.15;;;3.50;;
57778;SDS011;43608;49.486;9.640;2023-04-23T02:39:37;4.10;;;3.47;;
57778;SDS011;43608;49.486;9.640;2023-04-23T02:40:10;4.70;;;3.95;;
57778;SDS011;43608;49.486;9.640;2023-04-23T02:40:41;4.82;;;3.85;;
57778;SDS011;43608;49.486;9.640;2023-04-23T02:41:12;5.22;;;4.40;;
57778;SDS011;43608;49.486;9.640;2023-04-23T02:41:43;6.57;;;4.65;;
57778;SDS011;43608;49.486;9.640;2023-04-23T02:42:13;5.35;;;4.30;;
57778;SDS011;43608;49.486;9.640;2023-04-23T02:42:43;7.07;;;4.60;;
57778;SDS011;43608;49.486;9.640;2023-04-23T02:43:14;4.50;;;4.05;;
57778;SDS011;43608;49.486;9.640;2023-04-23T02:43:44;4.90;;;4.10;;
57778;SDS011;43608;49.486;9.640;2023-04-23T02:44:15;4.78;;;4.15;;
57778;SDS011;43608;49.486;9.640;2023-04-23T02:44:46;4.80;;;4.00;;
57778;SDS011;43608;49.486;9.640;2023-04-23T02:45:16;5.35;;;4.05;;
57778;SDS011;43608;49.486;9.640;2023-04-23T02:45:46;4.78;;;3.95;;
57778;SDS011;43608;49.486;9.640;2023-04-23T02:46:17;5.03;;;4.05;;
57778;SDS011;43608;49.486;9.640;2023-04-23T02:46:47;4.90;;;4.10;;
57778;SDS011;43608;49.486;9.640;2023-04-23T02:47:18;4.28;;;3.88;;
57778;SDS011;43608;49.486;9.640;2023-04-23T02:47:48;4.70;;;4.20;;
57778;SDS011;43608;49.486;9.640;2023-04-23T02:48:19;4.63;;;4.13;;
57778;SDS011;43608;49.486;9.640;2023-04-23T02:48:51;4.75;;;4.20;;
57778;SDS011;43608;49.486;9.640;2023-04-23T02:49:21;4.75;;;3.92;;
57778;SDS011;43608;49.486;9.640;2023-04-23T02:49:51;5.03;;;3.80;;
57778;SDS011;43608;49.486;9.640;2023-04-23T02:50:22;4.43;;;3.60;;
57778;SDS011;43608;49.486;9.640;2023-04-23T02:50:52;4.40;;;3.63;;
57778;SDS011;43608;49.486;9.640;2023-04-23T02:51:23;4.82;;;3.95;;
57778;SDS011;43608;49.486;9.640;2023-04-23T02:51:53;5.32;;;3.88;;
57778;SDS011;43608;49.486;9.640;2023-04-23T02:52:24;4.70;;;3.80;;
57778;SDS011;43608;49.486;9.640;2023-04-23T02:52:54;4.22;;;3.78;;
57778;SDS011;43608;49.486;9.640;2023-04-23T02:53:25;5.00;;;3.92;;
57778;SDS011;43608;49.486;9.640;2023-04-23T02:53:55;4.70;;;3.70;;
57778;SDS011;43608;49.486;9.640;2023-04-23T02:54:26;4.30;;;3.70;;
57778;SDS011;43608;49.486;9.640;2023-04-23T02:54:56;4.25;;;3.53;;
57778;SDS011;43608;49.486;9.640;2023-04-23T02:55:28;5.47;;;4.05;;
57778;SDS011;43608;49.486;9.640;2023-04-23T02:56:00;5.32;;;4.10;;
57778;SDS011;43608;49.486;9.640;2023-04-23T02:56:32;4.40;;;3.83;;
57778;SDS011;43608;49.486;9.640;2023-04-23T02:57:03;4.85;;;3.78;;
57778;SDS011;43608;49.486;9.640;2023-04-23T02:57:34;4.32;;;3.70;;
57778;SDS011;43608;49.486;9.640;2023-04-23T02:58:04;4.88;;;3.70;;
57778;SDS011;43608;49.486;9.640;2023-04-23T02:58:35;4.35;;;3.70;;
57778;SDS011;43608;49.486;9.640;2023-04-23T02:59:06;4.68;;;3.95;;
57778;SDS011;43608;49.486;9.640;2023-04-23T02:59:37;5.10;;;3.80;;
57778;SDS011;43608;49.486;9.640;2023-04-23T03:00:07;5.07;;;3.72;;
57778;SDS011;43608;49.486;9.640;2023-04-23T03:00:38;5.07;;;3.55;;
57778;SDS011;43608;49.486;9.640;2023-04-23T03:01:09;4.22;;;3.50;;
57778;SDS011;43608;49.486;9.640;2023-04-23T03:01:39;4.05;;;3.50;;
57778;SDS011;43608;49.486;9.640;2023-04-23T03:02:10;4.28;;;3.60;;
57778;SDS011;43608;49.486;9.640;2023-04-23T03:02:40;4.38;;;3.42;;
57778;SDS011;43608;49.486;9.640;2023-04-23T03:03:11;4.25;;;3.50;;
57778;SDS011;43608;49.486;9.640;2023-04-23T03:03:41;3.80;;;3.17;;
57778;SDS011;43608;49.486;9.640;2023-04-23T03:04:12;5.47;;;4.00;;
57778;SDS011;43608;49.486;9.640;2023-04-23T03:04:42;4.57;;;3.72;;
57778;SDS011;43608;49.486;9.640;2023-04-23T03:05:12;4.72;;;4.03;;
57778;SDS011;43608;49.486;9.640;2023-04-23T03:05:43;5.43;;;4.20;;
57778;SDS011;43608;49.486;9.640;2023-04-23T03:06:13;5.80;;;3.90;;